createdAt,value
2022-12-09T00:02:24.299Z,2.24
2022-12-09T00:04:51.829Z,2.25
2022-12-09T00:07:18.954Z,2.26
2022-12-09T00:09:46.291Z,2.24
2022-12-09T00:12:13.349Z,2.25
2022-12-09T00:14:40.588Z,2.20
2022-12-09T00:17:07.792Z,2.24
2022-12-09T00:19:35.297Z,2.20
2022-12-09T00:22:02.208Z,2.19
2022-12-09T00:24:29.498Z,2.26
2022-12-09T00:26:57.099Z,2.16
2022-12-09T00:29:24.149Z,2.19
2022-12-09T00:31:51.300Z,2.27
2022-12-09T00:34:18.474Z,2.23
2022-12-09T00:36:45.565Z,2.20
2022-12-09T00:39:12.734Z,2.25
2022-12-09T00:41:39.596Z,2.18
2022-12-09T00:44:06.873Z,2.16
2022-12-09T00:46:34.146Z,2.19
2022-12-09T00:49:01.301Z,2.23
2022-12-09T00:51:28.497Z,2.19
2022-12-09T00:53:56.248Z,2.23
2022-12-09T00:56:26.469Z,2.18
2022-12-09T00:58:54.442Z,2.18
2022-12-09T01:01:21.899Z,2.13
2022-12-09T01:03:49.299Z,2.16
2022-12-09T01:06:24.427Z,2.10
2022-12-09T01:09:05.214Z,2.09
2022-12-09T01:11:32.864Z,2.09
2022-12-09T01:14:02.381Z,2.07
2022-12-09T01:16:32.628Z,2.09
2022-12-09T01:19:02.624Z,2.11
2022-12-09T01:21:31.005Z,2.10
2022-12-09T01:23:58.172Z,2.12
2022-12-09T01:26:25.661Z,2.13
2022-12-09T01:28:55.351Z,2.14
2022-12-09T01:31:24.307Z,2.14
2022-12-09T01:33:51.830Z,2.08
2022-12-09T01:36:23.320Z,2.14
2022-12-09T01:38:50.623Z,2.07
2022-12-09T01:41:20.602Z,2.07
2022-12-09T01:44:07.544Z,2.05
2022-12-09T01:46:34.781Z,2.03
2022-12-09T01:49:02.804Z,2.02
2022-12-09T01:51:30.540Z,2.03
2022-12-09T01:53:58.747Z,2.00
2022-12-09T01:56:32.088Z,2.10
2022-12-09T01:59:06.613Z,2.04
2022-12-09T02:01:35.996Z,2.01
2022-12-09T02:04:04.835Z,1.98
2022-12-09T02:06:35.305Z,1.98
2022-12-09T02:09:02.685Z,2.02
2022-12-09T02:11:48.928Z,2.01
2022-12-09T02:14:45.390Z,2.08
2022-12-09T02:17:40.004Z,2.02
2022-12-09T02:20:34.358Z,1.98
2022-12-09T02:23:09.534Z,2.02
2022-12-09T02:25:47.077Z,2.04
2022-12-09T02:28:14.088Z,1.99
2022-12-09T02:31:10.197Z,2.03
2022-12-09T02:34:14.056Z,2.04
2022-12-09T02:37:05.586Z,2.03
2022-12-09T02:39:51.810Z,2.03
2022-12-09T02:42:24.226Z,2.03
2022-12-09T02:44:52.647Z,2.05
2022-12-09T02:47:23.651Z,2.01
2022-12-09T02:49:58.038Z,2.08
2022-12-09T02:52:26.382Z,2.07
2022-12-09T02:54:54.139Z,2.09
2022-12-09T02:57:28.184Z,2.04
2022-12-09T02:59:55.393Z,2.10
2022-12-09T03:02:39.565Z,2.05
2022-12-09T03:05:23.876Z,2.01
2022-12-09T03:08:12.676Z,2.01
2022-12-09T03:10:52.384Z,1.99
2022-12-09T03:13:34.501Z,2.04
2022-12-09T03:16:13.285Z,2.08
2022-12-09T03:18:45.817Z,2.11
2022-12-09T03:21:18.815Z,2.06
2022-12-09T03:23:46.826Z,2.04
2022-12-09T03:26:17.465Z,1.95
2022-12-09T03:28:50.252Z,2.01
2022-12-09T03:31:21.846Z,2.00
2022-12-09T03:33:54.855Z,2.03
2022-12-09T03:36:26.466Z,1.99
2022-12-09T03:38:55.632Z,1.97
2022-12-09T03:41:33.603Z,1.98
2022-12-09T03:44:18.591Z,1.92
2022-12-09T03:46:46.703Z,1.82
2022-12-09T03:49:14.736Z,1.89
2022-12-09T03:51:49.764Z,1.93
2022-12-09T03:54:29.773Z,1.93
2022-12-09T03:56:59.381Z,1.94
2022-12-09T03:59:34.827Z,2.00
2022-12-09T04:02:03.953Z,1.97
2022-12-09T04:04:31.388Z,1.93
2022-12-09T04:06:58.731Z,1.97
2022-12-09T04:09:26.281Z,1.91
2022-12-09T04:11:53.206Z,1.96
2022-12-09T04:14:20.577Z,1.96
2022-12-09T04:16:47.713Z,1.87
2022-12-09T04:19:14.950Z,1.98
2022-12-09T04:21:42.494Z,2.00
2022-12-09T04:24:10.088Z,1.97
2022-12-09T04:26:37.433Z,1.98
2022-12-09T04:29:04.957Z,1.94
2022-12-09T04:31:32.583Z,1.98
2022-12-09T04:34:06.793Z,1.98
2022-12-09T04:36:36.524Z,1.95
2022-12-09T04:39:04.729Z,1.99
2022-12-09T04:41:31.923Z,1.95
2022-12-09T04:43:59.330Z,2.02
2022-12-09T04:46:26.853Z,2.01
2022-12-09T04:48:54.068Z,1.88
2022-12-09T04:51:21.160Z,1.92
2022-12-09T04:53:48.270Z,1.90
2022-12-09T04:56:19.086Z,1.88
2022-12-09T04:58:47.061Z,1.88
2022-12-09T05:01:18.522Z,1.70
2022-12-09T05:03:51.078Z,1.61
2022-12-09T05:06:20.629Z,1.65
2022-12-09T05:08:48.480Z,1.64
2022-12-09T05:11:17.245Z,1.56
2022-12-09T05:13:44.803Z,1.53
2022-12-09T05:16:17.031Z,1.34
2022-12-09T05:18:46.575Z,1.14
2022-12-09T05:21:17.321Z,1.31
2022-12-09T05:23:45.040Z,1.47
2022-12-09T05:26:15.989Z,1.54
2022-12-09T05:28:43.707Z,1.48
2022-12-09T05:31:18.101Z,1.42
2022-12-09T05:33:46.253Z,1.16
2022-12-09T05:36:17.032Z,1.03
2022-12-09T05:38:45.145Z,0.92
2022-12-09T05:41:12.885Z,0.94
2022-12-09T05:43:40.289Z,1.11
2022-12-09T05:46:09.417Z,1.17
2022-12-09T05:48:37.384Z,1.21
2022-12-09T05:51:08.011Z,1.24
2022-12-09T05:53:36.043Z,1.14
2022-12-09T05:56:03.975Z,1.10
2022-12-09T05:58:31.411Z,1.04
2022-12-09T06:01:08.010Z,1.17
2022-12-09T06:03:36.312Z,1.06
2022-12-09T06:06:15.045Z,1.22
2022-12-09T06:08:44.480Z,1.28
2022-12-09T06:11:20.802Z,1.33
2022-12-09T06:13:50.044Z,1.38
2022-12-09T06:16:20.664Z,1.35
2022-12-09T06:18:49.410Z,1.38
2022-12-09T06:21:19.158Z,1.25
2022-12-09T06:23:46.955Z,1.23
2022-12-09T06:26:23.944Z,1.15
2022-12-09T06:28:52.184Z,1.10
2022-12-09T06:31:19.803Z,1.16
2022-12-09T06:33:57.247Z,1.27
2022-12-09T06:36:27.075Z,1.34
2022-12-09T06:38:55.440Z,1.40
2022-12-09T06:41:23.221Z,1.43
2022-12-09T06:43:50.898Z,1.50
2022-12-09T06:46:23.352Z,1.54
2022-12-09T06:48:52.276Z,1.46
2022-12-09T06:51:21.545Z,1.56
2022-12-09T06:53:48.857Z,1.62
2022-12-09T06:56:16.275Z,1.63
2022-12-09T06:58:45.787Z,1.57
2022-12-09T07:01:16.530Z,1.62
2022-12-09T07:03:46.038Z,1.61
2022-12-09T07:06:27.073Z,1.66
2022-12-09T07:08:56.824Z,1.57
2022-12-09T07:11:24.803Z,1.62
2022-12-09T07:13:52.231Z,1.58
2022-12-09T07:16:20.095Z,1.50
2022-12-09T07:18:47.725Z,1.53
2022-12-09T07:21:18.122Z,1.51
2022-12-09T07:23:46.269Z,1.52
2022-12-09T07:26:13.857Z,1.49
2022-12-09T07:28:42.716Z,1.50
2022-12-09T07:31:20.446Z,1.46
2022-12-09T07:33:49.087Z,1.43
2022-12-09T07:36:20.920Z,1.38
2022-12-09T07:38:53.809Z,1.36
2022-12-09T07:41:21.043Z,1.28
2022-12-09T07:43:48.852Z,1.24
2022-12-09T07:46:19.213Z,1.16
2022-12-09T07:48:47.309Z,9.33
2022-12-09T07:51:14.695Z,3.91
2022-12-09T07:53:41.918Z,2.03
2022-12-09T07:56:11.817Z,1.61
2022-12-09T07:58:39.028Z,2.34
2022-12-09T08:01:12.821Z,1.63
2022-12-09T08:03:42.482Z,1.52
2022-12-09T08:06:14.878Z,2.21
2022-12-09T08:08:43.101Z,1.87
2022-12-09T08:11:17.169Z,1.66
2022-12-09T08:13:44.581Z,1.73
2022-12-09T08:16:14.402Z,5.06
2022-12-09T08:18:43.062Z,2.38
2022-12-09T08:21:13.376Z,2.08
2022-12-09T08:23:41.150Z,2.16
2022-12-09T08:26:11.241Z,2.12
2022-12-09T08:28:39.456Z,2.09
2022-12-09T08:31:21.831Z,2.04
2022-12-09T08:33:50.649Z,2.10
2022-12-09T08:36:24.257Z,2.10
2022-12-09T08:38:52.298Z,2.10
2022-12-09T08:41:22.971Z,2.04
2022-12-09T08:43:50.040Z,2.02
2022-12-09T08:46:17.319Z,1.90
2022-12-09T08:48:44.865Z,1.79
2022-12-09T08:51:12.308Z,1.72
2022-12-09T08:53:39.932Z,1.62
2022-12-09T08:56:12.141Z,1.66
2022-12-09T08:58:40.675Z,1.74
2022-12-09T09:01:18.710Z,1.82
2022-12-09T09:03:47.944Z,1.91
2022-12-09T09:06:16.457Z,2.01
2022-12-09T09:08:44.250Z,2.12
2022-12-09T09:11:14.465Z,2.28
2022-12-09T09:13:43.582Z,2.35
2022-12-09T09:16:16.839Z,2.53
2022-12-09T09:18:44.880Z,2.56
2022-12-09T09:21:14.681Z,2.65
2022-12-09T09:23:42.920Z,2.63
2022-12-09T09:26:12.554Z,2.32
2022-12-09T09:28:40.089Z,2.28
2022-12-09T09:31:10.832Z,2.47
2022-12-09T09:33:38.086Z,2.53
2022-12-09T09:36:10.399Z,2.50
2022-12-09T09:38:37.940Z,2.26
2022-12-09T09:41:25.508Z,2.35
2022-12-09T09:43:55.354Z,2.45
2022-12-09T09:46:37.260Z,2.22
2022-12-09T09:49:12.504Z,2.03
2022-12-09T09:51:40.695Z,2.09
2022-12-09T09:54:14.739Z,2.30
2022-12-09T09:56:45.915Z,2.49
2022-12-09T10:00:00.772Z,2.59
2022-12-09T10:03:10.668Z,2.73
2022-12-09T10:05:52.864Z,2.63
2022-12-09T10:08:38.494Z,2.58
2022-12-09T10:11:26.069Z,2.76
2022-12-09T10:14:27.384Z,2.70
2022-12-09T10:17:21.359Z,2.69
2022-12-09T10:20:00.200Z,2.93
2022-12-09T10:22:31.725Z,2.94
2022-12-09T10:25:03.558Z,3.01
2022-12-09T10:27:35.829Z,2.85
2022-12-09T10:30:13.843Z,2.97
2022-12-09T10:32:42.247Z,3.09
2022-12-09T10:35:17.602Z,3.18
2022-12-09T10:37:46.634Z,2.98
2022-12-09T10:40:23.100Z,3.12
2022-12-09T10:43:15.296Z,3.11
2022-12-09T10:46:15.533Z,3.12
2022-12-09T10:49:01.641Z,3.36
2022-12-09T10:51:34.739Z,3.25
2022-12-09T10:54:13.386Z,3.27
2022-12-09T10:57:07.626Z,3.14
2022-12-09T10:59:36.625Z,3.12
2022-12-09T11:02:10.052Z,3.00
2022-12-09T11:04:42.881Z,3.23
2022-12-09T11:07:10.207Z,3.28
2022-12-09T11:09:41.577Z,3.24
2022-12-09T11:12:27.306Z,3.58
2022-12-09T11:14:59.838Z,3.51
2022-12-09T11:17:31.605Z,3.59
2022-12-09T11:20:04.854Z,3.52
2022-12-09T11:22:38.508Z,3.41
2022-12-09T11:25:15.753Z,3.58
2022-12-09T11:27:50.870Z,3.51
2022-12-09T11:30:27.266Z,3.37
2022-12-09T11:33:13.468Z,3.64
2022-12-09T11:35:44.317Z,3.72
2022-12-09T11:38:29.963Z,3.79
2022-12-09T11:41:08.932Z,3.67
2022-12-09T11:43:46.952Z,3.54
2022-12-09T11:46:13.741Z,3.36
2022-12-09T11:49:03.550Z,3.44
2022-12-09T11:51:39.515Z,3.46
2022-12-09T11:54:25.254Z,3.69
2022-12-09T11:56:53.908Z,3.85
2022-12-09T11:59:23.718Z,3.66
2022-12-09T12:02:16.974Z,3.76
2022-12-09T12:05:01.719Z,3.74
2022-12-09T12:07:38.338Z,3.69
2022-12-09T12:10:19.059Z,3.81
2022-12-09T12:13:29.091Z,3.62
2022-12-09T12:16:08.612Z,3.62
2022-12-09T12:18:55.867Z,3.77
2022-12-09T12:21:28.413Z,3.58
2022-12-09T12:24:17.191Z,3.72
2022-12-09T12:27:03.909Z,3.64
2022-12-09T12:29:36.743Z,3.59
2022-12-09T12:32:03.792Z,3.81
2022-12-09T12:34:52.593Z,3.89
2022-12-09T12:37:58.067Z,3.75
2022-12-09T12:40:40.744Z,3.71
2022-12-09T12:43:48.453Z,3.89
2022-12-09T12:46:44.284Z,3.71
2022-12-09T12:49:26.313Z,3.80
2022-12-09T12:52:47.285Z,3.93
2022-12-09T12:55:42.387Z,3.90
2022-12-09T12:58:31.776Z,3.94
2022-12-09T13:01:33.433Z,3.80
2022-12-09T13:04:38.314Z,3.84
2022-12-09T13:07:40.875Z,3.76
2022-12-09T13:10:26.517Z,3.82
2022-12-09T13:12:58.383Z,3.93
2022-12-09T13:15:33.431Z,4.00
2022-12-09T13:18:19.249Z,3.96
2022-12-09T13:20:52.765Z,3.81
2022-12-09T13:23:37.566Z,3.93
2022-12-09T13:26:31.996Z,3.98
2022-12-09T13:29:27.349Z,3.96
2022-12-09T13:31:59.845Z,3.93
2022-12-09T13:34:38.283Z,3.92
2022-12-09T13:37:05.795Z,3.70
2022-12-09T13:39:42.020Z,3.65
2022-12-09T13:42:46.775Z,3.68
2022-12-09T13:45:43.571Z,3.63
2022-12-09T13:48:17.052Z,3.60
2022-12-09T13:50:51.382Z,3.49
2022-12-09T13:53:21.417Z,3.59
2022-12-09T13:56:00.013Z,3.56
2022-12-09T13:59:03.140Z,3.52
2022-12-09T14:01:45.692Z,3.50
2022-12-09T14:04:19.040Z,3.40
2022-12-09T14:06:46.182Z,3.48
2022-12-09T14:09:45.051Z,3.40
2022-12-09T14:12:15.330Z,3.37
2022-12-09T14:14:56.522Z,3.24
2022-12-09T14:17:23.489Z,3.26
2022-12-09T14:19:50.273Z,3.26
2022-12-09T14:22:18.217Z,3.29
2022-12-09T14:24:56.370Z,3.28
2022-12-09T14:27:25.175Z,3.23
2022-12-09T14:29:56.768Z,3.13
2022-12-09T14:32:27.312Z,3.11
2022-12-09T14:35:38.226Z,2.87
2022-12-09T14:38:18.123Z,2.75
2022-12-09T14:41:25.678Z,2.67
2022-12-09T14:44:32.863Z,2.60
2022-12-09T14:47:30.453Z,2.59
2022-12-09T14:50:08.677Z,2.67
2022-12-09T14:52:36.009Z,2.62
2022-12-09T14:55:08.169Z,2.62
2022-12-09T14:57:43.516Z,2.67
2022-12-09T15:00:35.590Z,2.56
2022-12-09T15:03:32.139Z,2.56
2022-12-09T15:06:05.937Z,2.58
2022-12-09T15:08:38.840Z,2.52
2022-12-09T15:11:14.617Z,2.43
2022-12-09T15:13:51.529Z,2.44
2022-12-09T15:16:23.650Z,2.38
2022-12-09T15:18:52.936Z,2.42
2022-12-09T15:21:31.898Z,2.26
2022-12-09T15:24:00.820Z,2.16
2022-12-09T15:26:33.418Z,2.21
2022-12-09T15:29:04.947Z,2.23
2022-12-09T15:31:35.898Z,2.20
2022-12-09T15:34:19.355Z,2.26
2022-12-09T15:36:58.572Z,2.27
2022-12-09T15:39:50.115Z,2.32
2022-12-09T15:42:25.826Z,2.19
2022-12-09T15:45:07.316Z,2.20
2022-12-09T15:48:10.079Z,2.22
2022-12-09T15:50:49.459Z,2.27
2022-12-09T15:53:27.945Z,2.29
2022-12-09T15:56:18.371Z,2.38
2022-12-09T15:58:53.098Z,2.34
2022-12-09T16:01:32.065Z,2.33
2022-12-09T16:04:03.024Z,2.38
2022-12-09T16:06:37.087Z,2.35
2022-12-09T16:09:13.853Z,2.31
2022-12-09T16:11:48.380Z,2.36
2022-12-09T16:14:19.963Z,2.36
2022-12-09T16:16:54.300Z,2.37
2022-12-09T16:19:33.612Z,2.32
2022-12-09T16:22:21.595Z,2.28
2022-12-09T16:25:14.260Z,2.19
2022-12-09T16:27:48.980Z,2.26
2022-12-09T16:30:27.183Z,2.26
2022-12-09T16:32:57.605Z,2.27
2022-12-09T16:35:47.870Z,2.22
2022-12-09T16:38:18.465Z,2.18
2022-12-09T16:40:45.369Z,2.15
2022-12-09T16:43:18.878Z,2.08
2022-12-09T16:45:54.751Z,2.07
2022-12-09T16:48:24.500Z,2.15
2022-12-09T16:51:05.994Z,2.12
2022-12-09T16:53:49.808Z,2.11
2022-12-09T16:56:22.598Z,2.18
2022-12-09T16:58:52.199Z,2.16
2022-12-09T17:01:22.305Z,2.05
2022-12-09T17:03:59.233Z,2.16
2022-12-09T17:06:26.270Z,2.11
2022-12-09T17:08:56.153Z,2.09
2022-12-09T17:11:23.120Z,2.17
2022-12-09T17:13:50.339Z,2.15
2022-12-09T17:16:23.925Z,2.15
2022-12-09T17:18:51.133Z,2.11
2022-12-09T17:21:18.589Z,2.16
2022-12-09T17:23:45.504Z,2.16
2022-12-09T17:26:15.323Z,2.04
2022-12-09T17:28:43.705Z,2.14
2022-12-09T17:31:15.546Z,2.16
2022-12-09T17:33:43.740Z,2.16
2022-12-09T17:36:11.680Z,2.16
2022-12-09T17:38:38.681Z,2.14
2022-12-09T17:41:08.366Z,2.16
2022-12-09T17:43:36.089Z,2.11
2022-12-09T17:46:05.617Z,2.10
2022-12-09T17:48:34.866Z,2.10
2022-12-09T17:51:10.991Z,2.11
2022-12-09T17:53:40.665Z,2.10
2022-12-09T17:56:19.921Z,2.08
2022-12-09T17:58:56.393Z,2.15
2022-12-09T18:01:25.317Z,2.07
2022-12-09T18:04:01.379Z,2.03
2022-12-09T18:06:34.065Z,1.99
2022-12-09T18:09:04.250Z,1.89
2022-12-09T18:11:31.946Z,1.81
2022-12-09T18:14:00.161Z,1.73
2022-12-09T18:16:27.612Z,1.71
2022-12-09T18:18:55.086Z,1.68
2022-12-09T18:21:23.556Z,1.71
2022-12-09T18:23:50.856Z,1.78
2022-12-09T18:26:19.434Z,1.84
2022-12-09T18:28:46.869Z,1.78
2022-12-09T18:31:17.120Z,1.75
2022-12-09T18:33:44.717Z,1.69
2022-12-09T18:36:17.871Z,1.67
2022-12-09T18:38:45.832Z,1.68
2022-12-09T18:41:16.222Z,1.62
2022-12-09T18:43:46.143Z,1.67
2022-12-09T18:46:17.107Z,1.65
2022-12-09T18:48:54.473Z,1.68
2022-12-09T18:51:21.731Z,1.68
2022-12-09T18:53:49.045Z,1.68
2022-12-09T18:56:17.469Z,1.59
2022-12-09T19:01:34.012Z,1.31
2022-12-09T19:04:03.772Z,1.27
2022-12-09T19:06:33.734Z,1.26
2022-12-09T19:09:05.264Z,1.21
2022-12-09T19:11:35.365Z,1.33
2022-12-09T19:14:04.710Z,1.49
2022-12-09T19:16:32.710Z,1.59
2022-12-09T19:19:07.136Z,1.60
2022-12-09T19:21:36.160Z,1.62
2022-12-09T19:24:03.247Z,1.68
2022-12-09T19:26:32.700Z,1.68
2022-12-09T19:29:03.067Z,1.71
2022-12-09T19:31:36.133Z,1.64
2022-12-09T19:34:07.045Z,1.65
2022-12-09T19:36:34.538Z,1.58
2022-12-09T19:39:03.749Z,1.62
2022-12-09T19:41:30.822Z,1.66
2022-12-09T19:43:59.995Z,1.64
2022-12-09T19:46:28.495Z,1.71
2022-12-09T19:48:57.143Z,1.69
2022-12-09T19:51:26.404Z,1.63
2022-12-09T19:53:55.399Z,1.62
2022-12-09T19:56:23.456Z,1.65
2022-12-09T19:58:51.352Z,1.63
2022-12-09T20:01:27.735Z,1.62
2022-12-09T20:04:13.526Z,1.61
2022-12-09T20:06:41.790Z,1.65
2022-12-09T20:09:12.946Z,1.55
2022-12-09T20:11:41.899Z,1.56
2022-12-09T20:14:12.383Z,1.49
2022-12-09T20:16:39.880Z,1.39
2022-12-09T20:19:07.880Z,1.44
2022-12-09T20:21:35.343Z,1.39
2022-12-09T20:24:03.271Z,1.45
2022-12-09T20:26:33.114Z,1.37
2022-12-09T20:29:06.747Z,1.29
2022-12-09T20:31:36.144Z,1.30
2022-12-09T20:34:10.913Z,1.20
2022-12-09T20:36:40.793Z,1.14
2022-12-09T20:39:13.146Z,1.06
2022-12-09T20:41:41.757Z,0.97
2022-12-09T20:44:10.806Z,0.92
2022-12-09T20:46:39.942Z,0.87
2022-12-09T20:49:07.318Z,0.87
2022-12-09T20:51:37.601Z,0.76
2022-12-09T20:54:05.420Z,0.71
2022-12-09T20:56:34.004Z,0.68
2022-12-09T20:59:01.313Z,0.67
2022-12-09T21:01:31.667Z,0.67
2022-12-09T21:04:00.753Z,0.58
2022-12-09T21:06:31.403Z,0.50
2022-12-09T21:09:05.099Z,0.44
2022-12-09T21:11:32.504Z,0.32
2022-12-09T21:14:02.245Z,0.32
2022-12-09T21:16:32.348Z,0.41
2022-12-09T21:19:02.428Z,0.32
2022-12-09T21:21:32.188Z,0.12
2022-12-09T21:24:00.623Z,-0.02
2022-12-09T21:26:28.646Z,-0.17
2022-12-09T21:28:59.015Z,-0.29
2022-12-09T21:31:33.090Z,-0.38
2022-12-09T21:34:03.307Z,-0.36
2022-12-09T21:36:34.192Z,-0.48
2022-12-09T21:39:02.131Z,-0.60
2022-12-09T21:41:32.140Z,-0.64
2022-12-09T21:43:59.966Z,-0.72
2022-12-09T21:46:30.666Z,-0.78
2022-12-09T21:49:03.716Z,-0.81
2022-12-09T21:51:33.154Z,-0.96
2022-12-09T21:54:00.431Z,-1.10
2022-12-09T21:56:33.049Z,-1.14
2022-12-09T21:59:00.389Z,-1.20
2022-12-09T22:01:30.245Z,-1.24
2022-12-09T22:03:59.452Z,-1.29
2022-12-09T22:06:27.914Z,-1.37
2022-12-09T22:08:57.417Z,-1.41
2022-12-09T22:11:27.863Z,-1.48
2022-12-09T22:13:59.561Z,-1.47
2022-12-09T22:16:39.595Z,-1.53
2022-12-09T22:19:08.882Z,-1.59
2022-12-09T22:21:36.613Z,-1.57
2022-12-09T22:24:07.072Z,-1.48
2022-12-09T22:26:34.440Z,-1.49
2022-12-09T22:29:03.757Z,-1.43
2022-12-09T22:31:34.125Z,-1.54
2022-12-09T22:34:08.555Z,-1.51
2022-12-09T22:36:36.837Z,-1.46
2022-12-09T22:39:06.773Z,-1.47
2022-12-09T22:41:34.581Z,-1.50
2022-12-09T22:44:02.213Z,-1.48
2022-12-09T22:46:32.226Z,-1.35
2022-12-09T22:49:05.819Z,-1.27
2022-12-09T22:51:35.663Z,-1.17
2022-12-09T22:54:06.331Z,-1.23
2022-12-09T22:56:34.842Z,-1.32
2022-12-09T22:59:01.859Z,-1.42
2022-12-09T23:01:32.591Z,-1.41
2022-12-09T23:04:00.390Z,-1.45
2022-12-09T23:06:28.901Z,-1.59
2022-12-09T23:08:57.070Z,-1.74
2022-12-09T23:11:26.166Z,-1.81
2022-12-09T23:13:53.243Z,-1.89
2022-12-09T23:16:23.361Z,-1.96
2022-12-09T23:18:51.236Z,-1.90
2022-12-09T23:21:21.780Z,-2.00
2022-12-09T23:23:52.127Z,-2.01
2022-12-09T23:26:20.829Z,-2.01
2022-12-09T23:28:50.972Z,-2.14
2022-12-09T23:31:20.940Z,-2.13
2022-12-09T23:33:49.738Z,-2.23
2022-12-09T23:36:20.660Z,-2.29
2022-12-09T23:38:48.249Z,-2.27
2022-12-09T23:41:18.216Z,-2.31
2022-12-09T23:43:47.040Z,-2.30
2022-12-09T23:46:17.786Z,-2.41
2022-12-09T23:48:46.528Z,-2.29
2022-12-09T23:51:19.265Z,-2.35
2022-12-09T23:53:47.875Z,-2.39
2022-12-09T23:56:18.375Z,-2.29
2022-12-09T23:58:46.562Z,-2.45
